Time;durP1;ratioP1;P1;durP2;ratioP2;P2;SDS_P1;SDS_P2;PMS_P1;PMS_P2;Temp;Humidity;BMP_temperature;BMP_pressure;BME280_temperature;BME280_humidity;BME280_pressure;Samples;Min_cycle;Max_cycle;Signal;HPM_P1;HPM_P2
2024/02/27 00:01:33;;;;;;;125.35;23.67;;;;;;;;;;5013336;28;20041;-52
2024/02/27 00:04:01;;;;;;;43.70;19.85;;;;;;;;;;5014375;28;20013;-51
2024/02/27 00:06:31;;;;;;;70.47;22.45;;;;;;;;;;5013620;28;20042;-55
2024/02/27 00:08:58;;;;;;;29.20;19.38;;;;;;;;;;5012454;28;20082;-54
2024/02/27 00:11:24;;;;;;;36.55;19.90;;;;;;;;;;5017660;28;20026;-56
2024/02/27 00:13:51;;;;;;;61.42;20.33;;;;;;;;;;5013127;28;20030;-54
2024/02/27 00:16:18;;;;;;;41.35;19.50;;;;;;;;;;5008001;28;20027;-58
2024/02/27 00:18:46;;;;;;;59.55;23.15;;;;;;;;;;5023693;28;20314;-50
2024/02/27 00:21:12;;;;;;;56.15;27.77;;;;;;;;;;5027380;28;20222;-50
2024/02/27 00:23:39;;;;;;;106.63;32.88;;;;;;;;;;5027091;28;20214;-51
2024/02/27 00:26:06;;;;;;;89.70;32.30;;;;;;;;;;5026700;28;20355;-48
2024/02/27 00:28:32;;;;;;;72.43;28.45;;;;;;;;;;5026395;28;20281;-48
2024/02/27 00:31:00;;;;;;;47.33;23.67;;;;;;;;;;5027432;28;20210;-50
2024/02/27 00:33:27;;;;;;;45.45;21.63;;;;;;;;;;5027124;28;20349;-47
2024/02/27 00:35:54;;;;;;;38.05;21.20;;;;;;;;;;5027595;28;20038;-52
2024/02/27 00:38:20;;;;;;;32.90;18.83;;;;;;;;;;5027163;28;20084;-51
2024/02/27 00:40:47;;;;;;;34.45;17.58;;;;;;;;;;5027155;28;20033;-51
2024/02/27 00:43:13;;;;;;;27.52;16.48;;;;;;;;;;5026845;28;20047;-54
2024/02/27 00:45:40;;;;;;;27.55;15.65;;;;;;;;;;5026839;28;20025;-51
2024/02/27 00:48:07;;;;;;;21.85;15.52;;;;;;;;;;5026942;28;20021;-51
2024/02/27 00:50:33;;;;;;;25.83;15.77;;;;;;;;;;5027281;28;20037;-55
2024/02/27 00:53:00;;;;;;;55.97;17.67;;;;;;;;;;5026855;28;20065;-46
2024/02/27 00:55:27;;;;;;;33.45;17.20;;;;;;;;;;5027067;28;20029;-48
2024/02/27 00:57:53;;;;;;;38.92;15.63;;;;;;;;;;5026504;28;20410;-54
2024/02/27 01:00:20;;;;;;;19.85;15.27;;;;;;;;;;5026371;28;20025;-50
2024/02/27 01:02:47;;;;;;;21.38;14.55;;;;;;;;;;5026745;28;20025;-52
2024/02/27 01:05:13;;;;;;;26.48;14.10;;;;;;;;;;5026535;28;20279;-51
2024/02/27 01:07:42;;;;;;;24.70;15.23;;;;;;;;;;5025321;28;20022;-49
2024/02/27 01:10:09;;;;;;;101.07;21.40;;;;;;;;;;5026691;28;20299;-52
2024/02/27 01:12:36;;;;;;;92.40;19.27;;;;;;;;;;5026609;28;20029;-52
2024/02/27 01:15:03;;;;;;;51.42;15.57;;;;;;;;;;5026530;28;20218;-54
2024/02/27 01:17:29;;;;;;;30.13;15.02;;;;;;;;;;5026343;28;20068;-48
2024/02/27 01:19:56;;;;;;;41.47;15.73;;;;;;;;;;5026312;28;20065;-52
2024/02/27 01:22:29;;;;;;;34.90;15.32;;;;;;;;;;5026198;28;20060;-53
2024/02/27 01:24:57;;;;;;;34.60;14.45;;;;;;;;;;5026472;28;20025;-51
2024/02/27 01:27:24;;;;;;;23.08;14.00;;;;;;;;;;5026166;28;20018;-48
2024/02/27 01:29:51;;;;;;;45.60;14.95;;;;;;;;;;5026103;28;20068;-49
2024/02/27 01:32:17;;;;;;;47.42;14.98;;;;;;;;;;5026169;28;20310;-55
2024/02/27 01:34:44;;;;;;;31.55;14.63;;;;;;;;;;5026065;28;20037;-45
2024/02/27 01:37:11;;;;;;;31.83;14.25;;;;;;;;;;5025896;28;20041;-50
2024/02/27 01:39:38;;;;;;;20.70;12.48;;;;;;;;;;5025987;28;20045;-47
2024/02/27 01:42:05;;;;;;;33.88;13.98;;;;;;;;;;5025983;28;20322;-52
2024/02/27 01:44:32;;;;;;;23.65;12.75;;;;;;;;;;5026020;28;20306;-45
2024/02/27 01:46:59;;;;;;;24.45;13.20;;;;;;;;;;5025927;28;20060;-50
2024/02/27 01:49:26;;;;;;;23.10;12.70;;;;;;;;;;5025902;28;20037;-48
2024/02/27 01:51:53;;;;;;;31.02;13.07;;;;;;;;;;5024071;28;20048;-55
2024/02/27 01:54:23;;;;;;;21.73;12.40;;;;;;;;;;5025728;28;20049;-55
2024/02/27 01:56:50;;;;;;;19.08;12.63;;;;;;;;;;5025178;28;20376;-53
2024/02/27 01:59:18;;;;;;;19.95;12.85;;;;;;;;;;5025452;28;20029;-54
2024/02/27 02:01:45;;;;;;;19.75;11.95;;;;;;;;;;5025641;28;20045;-51
2024/02/27 02:04:12;;;;;;;28.13;12.98;;;;;;;;;;5024780;28;20080;-43
2024/02/27 02:06:39;;;;;;;23.85;12.55;;;;;;;;;;5025299;28;20100;-46
2024/02/27 02:09:06;;;;;;;25.67;13.18;;;;;;;;;;5025478;28;20014;-48
2024/02/27 02:11:32;;;;;;;19.92;12.10;;;;;;;;;;5025818;28;20049;-52
2024/02/27 02:13:59;;;;;;;24.67;12.88;;;;;;;;;;5025169;28;20017;-52
2024/02/27 02:16:26;;;;;;;82.05;15.65;;;;;;;;;;5025725;28;20034;-55
2024/02/27 02:18:52;;;;;;;28.75;11.73;;;;;;;;;;5025242;28;20018;-54
2024/02/27 02:21:19;;;;;;;22.38;11.77;;;;;;;;;;5025027;28;20273;-42
2024/02/27 02:23:46;;;;;;;22.15;12.48;;;;;;;;;;5025291;28;20033;-54
2024/02/27 02:26:12;;;;;;;21.77;12.55;;;;;;;;;;5025569;28;20102;-55
2024/02/27 02:28:39;;;;;;;15.13;11.80;;;;;;;;;;5007601;28;20021;-55
2024/02/27 02:31:06;;;;;;;15.43;11.50;;;;;;;;;;5024920;28;20029;-54
2024/02/27 02:33:32;;;;;;;20.38;12.00;;;;;;;;;;5024587;28;20030;-52
2024/02/27 02:35:59;;;;;;;23.98;11.73;;;;;;;;;;5024704;28;20033;-40
2024/02/27 02:38:25;;;;;;;17.85;11.43;;;;;;;;;;5025069;28;20306;-41
2024/02/27 02:40:52;;;;;;;17.27;11.80;;;;;;;;;;5025367;28;20309;-54
2024/02/27 02:43:18;;;;;;;19.65;11.70;;;;;;;;;;5024861;28;20377;-55
2024/02/27 02:45:45;;;;;;;20.30;11.68;;;;;;;;;;5025079;28;20218;-51
2024/02/27 02:48:11;;;;;;;19.48;11.18;;;;;;;;;;5024816;28;20310;-54
2024/02/27 02:50:38;;;;;;;18.27;11.73;;;;;;;;;;5024830;28;20094;-44
2024/02/27 02:53:05;;;;;;;19.08;11.43;;;;;;;;;;5024650;28;20021;-43
2024/02/27 02:55:31;;;;;;;19.70;11.15;;;;;;;;;;5024945;28;20021;-47
2024/02/27 02:57:58;;;;;;;17.23;11.23;;;;;;;;;;5024801;28;20067;-44
2024/02/27 03:00:25;;;;;;;19.40;11.65;;;;;;;;;;5025041;28;20030;-45
2024/02/27 03:02:51;;;;;;;17.10;11.10;;;;;;;;;;5024082;28;20026;-47
2024/02/27 03:05:18;;;;;;;19.23;11.52;;;;;;;;;;5024363;28;20100;-45
2024/02/27 03:07:44;;;;;;;18.95;11.10;;;;;;;;;;5023894;28;20022;-43
2024/02/27 03:10:11;;;;;;;19.27;11.85;;;;;;;;;;5007155;28;20310;-46
2024/02/27 03:12:39;;;;;;;16.70;11.10;;;;;;;;;;5024560;28;20037;-45
2024/02/27 03:15:06;;;;;;;16.90;11.20;;;;;;;;;;5024414;28;20309;-42
2024/02/27 03:17:33;;;;;;;18.05;10.70;;;;;;;;;;5024308;28;20064;-51
2024/02/27 03:19:59;;;;;;;15.52;12.07;;;;;;;;;;5024495;28;20214;-42
2024/02/27 03:22:26;;;;;;;22.13;11.75;;;;;;;;;;5024068;28;20060;-49
2024/02/27 03:24:53;;;;;;;19.17;12.23;;;;;;;;;;5024600;28;20233;-52
2024/02/27 03:27:19;;;;;;;17.10;11.23;;;;;;;;;;5024426;28;20025;-48
2024/02/27 03:29:46;;;;;;;19.15;11.65;;;;;;;;;;5024390;28;20029;-46
2024/02/27 03:32:12;;;;;;;17.35;11.43;;;;;;;;;;5024414;28;20036;-50
2024/02/27 03:34:39;;;;;;;14.30;11.10;;;;;;;;;;5024327;28;20056;-47
2024/02/27 03:37:06;;;;;;;14.98;11.35;;;;;;;;;;5024113;28;20159;-56
2024/02/27 03:39:32;;;;;;;15.48;11.40;;;;;;;;;;5024138;28;20072;-48
2024/02/27 03:41:59;;;;;;;15.13;11.13;;;;;;;;;;5024073;28;20373;-51
2024/02/27 03:44:25;;;;;;;17.63;11.73;;;;;;;;;;5024347;28;20014;-48
2024/02/27 03:46:52;;;;;;;122.50;17.40;;;;;;;;;;5028036;28;20018;-54
2024/02/27 03:49:18;;;;;;;25.25;12.25;;;;;;;;;;5027224;28;20029;-49
2024/02/27 03:51:45;;;;;;;21.65;12.10;;;;;;;;;;5027436;28;20025;-42
2024/02/27 03:54:11;;;;;;;23.20;11.60;;;;;;;;;;5027784;28;20017;-51
2024/02/27 03:56:38;;;;;;;17.55;10.98;;;;;;;;;;5027595;28;20025;-46
2024/02/27 03:59:05;;;;;;;17.20;11.38;;;;;;;;;;5027830;28;20022;-51
2024/02/27 04:01:31;;;;;;;19.55;11.80;;;;;;;;;;5027402;28;20026;-51
2024/02/27 04:03:58;;;;;;;20.38;11.23;;;;;;;;;;5027759;28;20030;-42
2024/02/27 04:06:24;;;;;;;17.73;11.68;;;;;;;;;;5027582;28;20053;-49
2024/02/27 04:08:51;;;;;;;19.63;11.32;;;;;;;;;;5027443;28;20329;-48
2024/02/27 04:11:18;;;;;;;19.08;12.52;;;;;;;;;;5028140;28;20206;-47
2024/02/27 04:13:44;;;;;;;17.77;11.45;;;;;;;;;;5027684;28;20025;-43
2024/02/27 04:16:11;;;;;;;14.77;10.77;;;;;;;;;;5027918;28;20053;-42
2024/02/27 04:18:37;;;;;;;15.63;10.63;;;;;;;;;;5027616;28;20025;-46
2024/02/27 04:21:04;;;;;;;17.75;11.50;;;;;;;;;;5027488;28;20034;-47
2024/02/27 04:23:30;;;;;;;14.77;10.82;;;;;;;;;;5027691;28;20355;-49
2024/02/27 04:25:57;;;;;;;16.40;11.02;;;;;;;;;;5027598;28;20298;-48
2024/02/27 04:28:24;;;;;;;19.48;11.18;;;;;;;;;;5026137;28;20014;-52
2024/02/27 04:30:50;;;;;;;19.38;11.52;;;;;;;;;;5025336;28;20065;-47
2024/02/27 04:33:17;;;;;;;16.75;11.32;;;;;;;;;;5025531;28;20024;-45
2024/02/27 04:35:43;;;;;;;17.85;11.15;;;;;;;;;;5026027;28;20029;-50
2024/02/27 04:38:10;;;;;;;16.25;11.60;;;;;;;;;;5025653;28;20297;-48
2024/02/27 04:40:36;;;;;;;16.05;11.10;;;;;;;;;;5025940;28;20092;-52
2024/02/27 04:43:03;;;;;;;19.42;11.35;;;;;;;;;;5025562;28;20210;-54
2024/02/27 04:45:30;;;;;;;13.20;10.52;;;;;;;;;;5027019;28;20022;-52
2024/02/27 04:47:57;;;;;;;14.90;11.15;;;;;;;;;;5026849;28;20140;-52
2024/02/27 04:50:23;;;;;;;16.92;10.85;;;;;;;;;;5026629;28;20025;-44
2024/02/27 04:52:50;;;;;;;16.42;11.65;;;;;;;;;;5026811;28;20025;-49
2024/02/27 04:55:16;;;;;;;18.45;11.50;;;;;;;;;;5025706;28;20089;-48
2024/02/27 04:57:43;;;;;;;16.85;11.07;;;;;;;;;;5026831;28;20022;-48
2024/02/27 05:00:10;;;;;;;17.48;11.05;;;;;;;;;;5026959;28;20049;-44
2024/02/27 05:02:37;;;;;;;19.95;11.40;;;;;;;;;;5026524;28;20322;-45
2024/02/27 05:05:03;;;;;;;17.40;10.15;;;;;;;;;;5026650;28;20334;-49
2024/02/27 05:07:30;;;;;;;19.15;10.88;;;;;;;;;;5026615;28;20201;-52
2024/02/27 05:09:57;;;;;;;20.15;10.70;;;;;;;;;;5026587;28;20187;-57
2024/02/27 05:12:23;;;;;;;19.23;10.88;;;;;;;;;;5026706;28;20022;-52
2024/02/27 05:14:50;;;;;;;15.20;10.77;;;;;;;;;;5026507;28;20072;-57
2024/02/27 05:17:17;;;;;;;14.18;10.63;;;;;;;;;;5026576;28;20044;-54
2024/02/27 05:19:43;;;;;;;17.85;10.52;;;;;;;;;;5026328;28;20038;-47
2024/02/27 05:22:10;;;;;;;16.90;10.75;;;;;;;;;;5026003;28;20036;-41
2024/02/27 05:24:37;;;;;;;15.23;10.25;;;;;;;;;;5026357;28;20055;-43
2024/02/27 05:27:03;;;;;;;16.30;10.75;;;;;;;;;;5024847;28;20029;-45
2024/02/27 05:29:32;;;;;;;13.93;10.38;;;;;;;;;;5026202;28;20017;-41
2024/02/27 05:31:59;;;;;;;14.43;10.55;;;;;;;;;;5025240;28;20032;-47
2024/02/27 05:34:26;;;;;;;13.73;10.88;;;;;;;;;;5026168;28;20025;-41
2024/02/27 05:36:53;;;;;;;14.73;9.82;;;;;;;;;;5025914;28;20050;-49
2024/02/27 05:39:20;;;;;;;17.00;10.40;;;;;;;;;;5025696;28;20030;-49
2024/02/27 05:41:47;;;;;;;16.17;10.65;;;;;;;;;;5025718;28;20018;-45
2024/02/27 05:44:14;;;;;;;15.07;10.50;;;;;;;;;;5025809;28;20021;-40
2024/02/27 05:46:41;;;;;;;13.18;9.90;;;;;;;;;;5025586;28;20032;-43
2024/02/27 05:49:07;;;;;;;12.98;9.98;;;;;;;;;;5025912;28;20025;-46
2024/02/27 05:51:34;;;;;;;15.73;10.27;;;;;;;;;;5026343;28;20040;-47
2024/02/27 05:54:00;;;;;;;16.02;10.38;;;;;;;;;;5025536;28;20018;-50
2024/02/27 05:56:27;;;;;;;14.20;10.48;;;;;;;;;;5026130;28;20241;-51
2024/02/27 05:58:53;;;;;;;12.85;9.15;;;;;;;;;;5025635;28;20336;-49
2024/02/27 06:01:20;;;;;;;15.48;10.18;;;;;;;;;;5025777;28;20287;-53
2024/02/27 06:03:46;;;;;;;15.02;10.77;;;;;;;;;;5025328;28;20329;-51
2024/02/27 06:06:13;;;;;;;17.00;10.15;;;;;;;;;;5025395;28;20069;-52
2024/02/27 06:08:40;;;;;;;13.23;10.27;;;;;;;;;;5024636;28;20014;-54
2024/02/27 06:11:06;;;;;;;14.73;9.77;;;;;;;;;;5025811;28;20037;-51
2024/02/27 06:13:33;;;;;;;15.60;9.80;;;;;;;;;;5025237;28;20060;-51
2024/02/27 06:16:00;;;;;;;12.90;9.68;;;;;;;;;;5025724;28;20245;-55
2024/02/27 06:18:26;;;;;;;13.63;9.93;;;;;;;;;;5025167;28;20314;-51
2024/02/27 06:23:38;;;;;;;14.68;10.13;;;;;;;;;;5024926;28;20028;-53
2024/02/27 06:26:08;;;;;;;14.38;10.10;;;;;;;;;;5025540;28;20026;-51
2024/02/27 06:28:34;;;;;;;14.93;10.02;;;;;;;;;;5024933;28;20021;-51
2024/02/27 06:31:01;;;;;;;12.73;9.68;;;;;;;;;;5025247;28;20053;-51
2024/02/27 06:33:27;;;;;;;14.27;10.30;;;;;;;;;;5024926;28;20065;-54
2024/02/27 06:35:54;;;;;;;16.60;10.60;;;;;;;;;;5025344;28;20234;-52
2024/02/27 06:38:20;;;;;;;14.10;10.20;;;;;;;;;;5024816;28;20242;-52
2024/02/27 06:40:47;;;;;;;15.52;10.50;;;;;;;;;;5025102;28;20061;-50
2024/02/27 06:43:14;;;;;;;15.25;10.60;;;;;;;;;;5024861;28;20266;-49
2024/02/27 06:45:41;;;;;;;12.98;10.18;;;;;;;;;;5024798;28;20024;-49
2024/02/27 06:48:09;;;;;;;14.98;10.18;;;;;;;;;;5024899;28;20290;-46
2024/02/27 06:50:36;;;;;;;15.27;10.02;;;;;;;;;;5024859;28;20030;-44
2024/02/27 06:53:03;;;;;;;13.13;10.05;;;;;;;;;;5006988;28;20032;-46
2024/02/27 06:55:30;;;;;;;16.35;10.50;;;;;;;;;;5024736;28;20060;-44
2024/02/27 06:57:56;;;;;;;13.38;10.27;;;;;;;;;;5024757;28;20017;-44
2024/02/27 07:00:23;;;;;;;13.63;10.18;;;;;;;;;;5024610;28;20072;-41
2024/02/27 07:02:50;;;;;;;15.00;10.23;;;;;;;;;;5023867;28;20044;-45
2024/02/27 07:05:16;;;;;;;12.65;10.63;;;;;;;;;;5024359;28;20316;-43
2024/02/27 07:07:43;;;;;;;14.38;10.98;;;;;;;;;;5024241;28;20024;-41
2024/02/27 07:10:09;;;;;;;16.25;11.30;;;;;;;;;;5024604;28;20033;-48
2024/02/27 07:12:36;;;;;;;11.88;10.40;;;;;;;;;;5024254;28;20033;-47
2024/02/27 07:15:03;;;;;;;13.85;11.10;;;;;;;;;;5024375;28;20298;-42
2024/02/27 07:17:29;;;;;;;13.60;11.40;;;;;;;;;;5024368;28;20033;-42
2024/02/27 07:19:57;;;;;;;13.77;11.75;;;;;;;;;;5024163;28;20052;-47
2024/02/27 07:22:24;;;;;;;13.00;10.60;;;;;;;;;;5023922;28;20311;-43
2024/02/27 07:24:52;;;;;;;13.95;10.65;;;;;;;;;;5024215;28;20211;-42
2024/02/27 07:27:18;;;;;;;14.70;11.00;;;;;;;;;;5023953;28;20183;-48
2024/02/27 07:29:45;;;;;;;18.20;10.80;;;;;;;;;;5024255;28;20028;-46
2024/02/27 07:32:12;;;;;;;13.98;11.30;;;;;;;;;;5024168;28;20030;-47
2024/02/27 07:34:38;;;;;;;14.32;11.45;;;;;;;;;;5024021;28;20030;-46
2024/02/27 07:37:05;;;;;;;15.45;10.35;;;;;;;;;;5024355;28;20088;-48
2024/02/27 07:39:32;;;;;;;13.02;11.18;;;;;;;;;;5023981;28;20025;-53
2024/02/27 07:41:58;;;;;;;16.20;11.00;;;;;;;;;;5024168;28;20294;-53
2024/02/27 07:44:25;;;;;;;12.88;10.93;;;;;;;;;;5024161;28;20025;-47
2024/02/27 07:46:51;;;;;;;13.82;11.63;;;;;;;;;;5023804;28;20014;-48
2024/02/27 07:49:18;;;;;;;13.57;10.75;;;;;;;;;;5023780;28;20018;-51
2024/02/27 07:51:45;;;;;;;16.25;11.23;;;;;;;;;;5024049;28;20060;-51
2024/02/27 07:54:15;;;;;;;14.27;10.95;;;;;;;;;;5023719;28;20018;-54
2024/02/27 07:56:43;;;;;;;17.42;11.88;;;;;;;;;;5023786;28;20034;-53
2024/02/27 07:59:11;;;;;;;12.73;11.32;;;;;;;;;;5023767;28;20052;-53
2024/02/27 08:01:37;;;;;;;14.23;11.15;;;;;;;;;;5024248;28;20196;-52
2024/02/27 08:04:04;;;;;;;17.42;12.23;;;;;;;;;;5023814;28;20082;-49
2024/02/27 08:06:31;;;;;;;16.42;11.68;;;;;;;;;;5023705;28;20054;-42
2024/02/27 08:08:58;;;;;;;16.58;11.95;;;;;;;;;;5023643;28;20310;-53
2024/02/27 08:11:26;;;;;;;16.20;12.15;;;;;;;;;;5024200;28;20025;-51
2024/02/27 08:13:52;;;;;;;16.80;11.05;;;;;;;;;;5023934;28;20369;-48
2024/02/27 08:16:22;;;;;;;14.38;11.50;;;;;;;;;;5023999;28;20315;-45
2024/02/27 08:18:48;;;;;;;14.68;12.15;;;;;;;;;;5023574;28;20021;-49
2024/02/27 08:21:15;;;;;;;16.38;12.80;;;;;;;;;;5023992;28;20030;-46
2024/02/27 08:23:42;;;;;;;16.35;12.00;;;;;;;;;;5023718;28;20017;-51
2024/02/27 08:26:08;;;;;;;21.30;11.52;;;;;;;;;;5023911;28;20033;-52
2024/02/27 08:28:35;;;;;;;14.68;12.27;;;;;;;;;;5023528;28;20024;-46
2024/02/27 08:31:03;;;;;;;15.48;11.88;;;;;;;;;;5025026;28;20029;-50
2024/02/27 08:33:33;;;;;;;15.43;11.48;;;;;;;;;;5027129;28;20033;-51
2024/02/27 08:35:59;;;;;;;16.50;11.90;;;;;;;;;;5027432;28;20033;-45
2024/02/27 08:38:26;;;;;;;14.10;12.00;;;;;;;;;;5027174;28;20089;-47
2024/02/27 08:40:52;;;;;;;15.88;11.68;;;;;;;;;;5027393;28;20030;-50
2024/02/27 08:43:19;;;;;;;17.20;12.02;;;;;;;;;;5027000;28;20085;-44
2024/02/27 08:45:45;;;;;;;14.40;11.70;;;;;;;;;;5027111;28;20030;-49
2024/02/27 08:48:12;;;;;;;15.23;11.45;;;;;;;;;;5027045;28;20295;-52
2024/02/27 08:50:39;;;;;;;12.68;11.32;;;;;;;;;;5027226;28;20049;-45
2024/02/27 08:53:05;;;;;;;14.85;11.40;;;;;;;;;;5026071;28;20049;-46
2024/02/27 08:55:32;;;;;;;14.30;11.88;;;;;;;;;;5027096;28;20241;-53
2024/02/27 08:57:58;;;;;;;13.57;11.90;;;;;;;;;;5026821;28;20025;-51
2024/02/27 09:00:25;;;;;;;16.90;12.60;;;;;;;;;;5026922;28;20033;-44
2024/02/27 09:02:52;;;;;;;15.35;11.88;;;;;;;;;;5026440;28;20026;-45
2024/02/27 09:05:19;;;;;;;15.27;11.93;;;;;;;;;;5026735;28;20061;-49
2024/02/27 09:07:45;;;;;;;13.15;11.75;;;;;;;;;;5026478;28;20333;-50
2024/02/27 09:10:12;;;;;;;16.17;11.65;;;;;;;;;;5026776;28;20075;-47
2024/02/27 09:12:40;;;;;;;20.20;12.45;;;;;;;;;;5026484;28;20017;-49
2024/02/27 09:15:07;;;;;;;17.33;12.52;;;;;;;;;;5026421;28;20325;-51
2024/02/27 09:17:35;;;;;;;17.67;12.52;;;;;;;;;;5026322;28;20071;-49
2024/02/27 09:20:06;;;;;;;16.83;13.10;;;;;;;;;;5026769;28;20041;-46
2024/02/27 09:22:33;;;;;;;19.97;12.63;;;;;;;;;;5026083;28;20021;-42
2024/02/27 09:25:00;;;;;;;18.10;12.18;;;;;;;;;;5026149;28;20328;-47
2024/02/27 09:27:27;;;;;;;19.23;12.48;;;;;;;;;;5026247;28;20020;-49
2024/02/27 09:29:54;;;;;;;16.42;12.27;;;;;;;;;;5026141;28;20387;-52
2024/02/27 09:32:21;;;;;;;17.63;12.15;;;;;;;;;;5026126;28;20053;-49
2024/02/27 09:34:49;;;;;;;16.35;12.55;;;;;;;;;;5026093;28;20037;-51
2024/02/27 09:37:16;;;;;;;15.30;12.02;;;;;;;;;;5025835;28;20218;-53
2024/02/27 09:39:42;;;;;;;15.45;11.68;;;;;;;;;;5025965;28;20025;-48
2024/02/27 09:42:10;;;;;;;19.50;12.60;;;;;;;;;;5025785;28;20028;-45
2024/02/27 09:44:41;;;;;;;17.38;12.40;;;;;;;;;;5025781;28;20081;-48
2024/02/27 09:47:08;;;;;;;17.92;12.30;;;;;;;;;;5026285;28;20022;-51
2024/02/27 09:49:38;;;;;;;19.45;12.98;;;;;;;;;;5025898;28;20084;-55
2024/02/27 09:52:06;;;;;;;15.95;12.45;;;;;;;;;;5025819;28;20099;-55
2024/02/27 09:54:33;;;;;;;16.67;12.07;;;;;;;;;;5025780;28;20084;-55
2024/02/27 09:57:00;;;;;;;17.00;12.13;;;;;;;;;;5025714;28;20026;-60
2024/02/27 09:59:26;;;;;;;17.60;12.57;;;;;;;;;;5025478;28;20026;-59
2024/02/27 10:01:54;;;;;;;18.58;12.38;;;;;;;;;;5025418;28;20036;-58
2024/02/27 10:04:23;;;;;;;15.75;12.88;;;;;;;;;;5025456;28;20010;-56
2024/02/27 10:06:50;;;;;;;17.63;12.52;;;;;;;;;;5025278;28;20077;-52
2024/02/27 10:09:18;;;;;;;17.80;12.32;;;;;;;;;;5025305;28;20020;-56
2024/02/27 10:11:47;;;;;;;17.38;12.57;;;;;;;;;;5025036;28;20045;-54
2024/02/27 10:14:22;;;;;;;17.10;12.55;;;;;;;;;;5025557;28;20211;-55
2024/02/27 10:16:50;;;;;;;19.25;12.82;;;;;;;;;;5025215;28;20026;-56
2024/02/27 10:19:19;;;;;;;17.88;12.60;;;;;;;;;;5024988;28;20018;-52
2024/02/27 10:21:46;;;;;;;18.42;12.10;;;;;;;;;;5025230;28;20046;-45
2024/02/27 10:24:20;;;;;;;19.60;12.60;;;;;;;;;;5025412;28;20014;-49
2024/02/27 10:26:53;;;;;;;19.77;13.05;;;;;;;;;;5024934;28;20059;-49
2024/02/27 10:29:23;;;;;;;21.40;12.88;;;;;;;;;;5025063;28;20242;-48
2024/02/27 10:31:50;;;;;;;23.52;12.90;;;;;;;;;;5024898;28;20022;-44
2024/02/27 10:34:17;;;;;;;23.92;12.90;;;;;;;;;;5024842;28;20022;-42
2024/02/27 10:36:44;;;;;;;23.88;13.02;;;;;;;;;;5024903;28;20068;-48
2024/02/27 10:39:11;;;;;;;17.75;12.73;;;;;;;;;;5024740;28;20307;-47
2024/02/27 10:41:41;;;;;;;24.73;13.15;;;;;;;;;;5025302;28;20034;-45
2024/02/27 10:44:08;;;;;;;23.55;13.77;;;;;;;;;;5024925;28;20030;-47
2024/02/27 10:46:38;;;;;;;22.88;13.73;;;;;;;;;;5025088;28;20037;-51
2024/02/27 10:49:05;;;;;;;21.98;14.32;;;;;;;;;;5024931;28;20098;-48
2024/02/27 10:51:32;;;;;;;33.92;15.05;;;;;;;;;;5025187;28;20022;-55
2024/02/27 10:53:59;;;;;;;60.53;16.65;;;;;;;;;;5024104;28;20029;-43
2024/02/27 10:56:25;;;;;;;37.40;15.07;;;;;;;;;;5025011;28;20064;-49
2024/02/27 10:58:52;;;;;;;33.67;14.57;;;;;;;;;;5024598;28;20022;-47
2024/02/27 11:01:19;;;;;;;53.03;15.95;;;;;;;;;;5025035;28;20175;-50
2024/02/27 11:03:53;;;;;;;36.25;14.27;;;;;;;;;;5024273;28;20033;-45
2024/02/27 11:06:23;;;;;;;32.17;13.90;;;;;;;;;;5024399;28;20050;-45
2024/02/27 11:08:59;;;;;;;30.38;14.35;;;;;;;;;;5024283;28;20028;-49
2024/02/27 11:11:26;;;;;;;27.52;14.38;;;;;;;;;;5024756;28;20030;-46
2024/02/27 11:13:53;;;;;;;27.38;15.07;;;;;;;;;;5024260;28;20253;-44
2024/02/27 11:16:24;;;;;;;31.15;14.30;;;;;;;;;;5024694;28;20029;-41
2024/02/27 11:18:54;;;;;;;127.18;21.17;;;;;;;;;;5024271;28;20071;-42
2024/02/27 11:21:21;;;;;;;27.00;14.02;;;;;;;;;;5023613;28;20032;-45
2024/02/27 11:23:48;;;;;;;33.92;14.10;;;;;;;;;;5024130;28;20022;-50
2024/02/27 11:26:14;;;;;;;37.35;14.27;;;;;;;;;;5024198;28;20088;-43
2024/02/27 11:28:42;;;;;;;28.35;13.20;;;;;;;;;;5022713;28;20021;-42
2024/02/27 11:31:08;;;;;;;28.77;13.90;;;;;;;;;;5024555;28;20076;-47
2024/02/27 11:33:47;;;;;;;25.73;13.48;;;;;;;;;;5024151;28;20219;-43
2024/02/27 11:36:13;;;;;;;30.90;13.30;;;;;;;;;;5024384;28;20037;-49
2024/02/27 11:38:43;;;;;;;28.27;13.20;;;;;;;;;;5023933;28;20030;-46
2024/02/27 11:41:13;;;;;;;37.30;14.65;;;;;;;;;;5023482;28;20036;-59
2024/02/27 11:43:39;;;;;;;26.40;13.43;;;;;;;;;;5022294;28;20026;-45
2024/02/27 11:46:24;;;;;;;23.85;13.50;;;;;;;;;;5022648;28;20071;-47
2024/02/27 11:48:50;;;;;;;20.88;13.05;;;;;;;;;;5022206;28;20025;-42
2024/02/27 11:51:28;;;;;;;26.20;13.77;;;;;;;;;;5022668;28;20080;-48
2024/02/27 11:53:55;;;;;;;30.02;13.93;;;;;;;;;;5022388;28;20026;-48
2024/02/27 11:56:25;;;;;;;22.95;13.50;;;;;;;;;;5022761;28;20101;-47
2024/02/27 11:58:55;;;;;;;24.55;12.75;;;;;;;;;;5023921;28;20100;-49
2024/02/27 12:01:22;;;;;;;29.52;13.38;;;;;;;;;;5024042;28;20072;-43
2024/02/27 12:03:49;;;;;;;27.92;14.27;;;;;;;;;;5023827;28;20213;-51
2024/02/27 12:06:15;;;;;;;38.15;14.90;;;;;;;;;;5025152;28;20356;-54
2024/02/27 12:08:45;;;;;;;28.75;14.07;;;;;;;;;;5027644;28;20314;-57
2024/02/27 12:11:12;;;;;;;32.17;14.55;;;;;;;;;;5027925;28;20302;-55
2024/02/27 12:13:38;;;;;;;53.25;15.27;;;;;;;;;;5027435;28;20068;-54
2024/02/27 12:16:05;;;;;;;35.85;14.52;;;;;;;;;;5027835;28;20037;-55
2024/02/27 12:18:32;;;;;;;30.67;14.25;;;;;;;;;;5027830;28;20029;-44
2024/02/27 12:21:00;;;;;;;31.15;13.65;;;;;;;;;;5027691;28;20028;-49
2024/02/27 12:23:29;;;;;;;29.63;13.63;;;;;;;;;;5027118;28;20026;-46
2024/02/27 12:25:56;;;;;;;27.52;13.27;;;;;;;;;;5027628;28;20183;-47
2024/02/27 12:28:23;;;;;;;29.02;13.07;;;;;;;;;;5027651;28;20028;-48
2024/02/27 12:30:52;;;;;;;35.45;13.90;;;;;;;;;;5027379;28;20029;-45
2024/02/27 12:33:19;;;;;;;37.13;17.25;;;;;;;;;;5027130;28;20217;-47
2024/02/27 12:35:46;;;;;;;51.53;25.30;;;;;;;;;;5027426;28;20128;-45
2024/02/27 12:38:13;;;;;;;52.60;23.02;;;;;;;;;;5027273;28;20206;-46
2024/02/27 12:40:40;;;;;;;43.30;20.05;;;;;;;;;;5026938;28;20100;-46
2024/02/27 12:43:07;;;;;;;37.53;19.30;;;;;;;;;;5027069;28;20026;-46
2024/02/27 12:45:33;;;;;;;31.17;16.27;;;;;;;;;;5027177;28;20313;-44
2024/02/27 12:48:00;;;;;;;33.60;16.15;;;;;;;;;;5027094;28;20026;-49
2024/02/27 12:50:27;;;;;;;43.28;15.85;;;;;;;;;;5027008;28;20084;-53
2024/02/27 12:52:56;;;;;;;40.58;15.70;;;;;;;;;;5026669;28;20033;-54
2024/02/27 12:55:23;;;;;;;35.72;14.85;;;;;;;;;;5026908;28;20036;-54
2024/02/27 12:57:56;;;;;;;28.15;14.07;;;;;;;;;;5026704;28;20072;-55
2024/02/27 13:00:23;;;;;;;29.90;14.07;;;;;;;;;;5026723;28;20050;-53
2024/02/27 13:02:55;;;;;;;30.38;13.95;;;;;;;;;;5026545;28;20340;-48
2024/02/27 13:05:22;;;;;;;29.38;15.02;;;;;;;;;;5026116;28;20046;-52
2024/02/27 13:07:49;;;;;;;28.00;13.65;;;;;;;;;;5026403;28;20029;-45
2024/02/27 13:10:20;;;;;;;33.90;14.27;;;;;;;;;;5026827;28;20068;-51
2024/02/27 13:13:05;;;;;;;39.33;14.52;;;;;;;;;;5026455;28;20053;-43
2024/02/27 13:15:31;;;;;;;35.55;13.85;;;;;;;;;;5026792;28;20026;-55
2024/02/27 13:17:58;;;;;;;30.33;13.80;;;;;;;;;;5026087;28;20037;-47
2024/02/27 13:20:24;;;;;;;31.90;13.80;;;;;;;;;;5026463;28;20245;-43
2024/02/27 13:22:51;;;;;;;26.65;14.35;;;;;;;;;;5026191;28;20025;-54
2024/02/27 13:25:17;;;;;;;24.50;14.55;;;;;;;;;;5026272;28;20222;-49
2024/02/27 13:27:45;;;;;;;30.58;15.00;;;;;;;;;;5026104;28;20026;-49
2024/02/27 13:30:12;;;;;;;31.30;15.13;;;;;;;;;;5026448;28;20034;-51
2024/02/27 13:32:39;;;;;;;28.73;15.02;;;;;;;;;;5026197;28;20049;-55
2024/02/27 13:35:05;;;;;;;29.77;15.30;;;;;;;;;;5026144;28;20030;-56
2024/02/27 13:37:32;;;;;;;32.45;14.77;;;;;;;;;;5026149;28;20214;-56
2024/02/27 13:39:58;;;;;;;31.10;14.82;;;;;;;;;;5026170;28;20314;-54
2024/02/27 13:42:25;;;;;;;32.00;14.55;;;;;;;;;;5025798;28;20025;-52
2024/02/27 13:44:52;;;;;;;25.98;14.50;;;;;;;;;;5025923;28;20049;-52
2024/02/27 13:47:19;;;;;;;30.20;15.23;;;;;;;;;;5026117;28;20021;-57
2024/02/27 13:49:46;;;;;;;25.67;14.93;;;;;;;;;;5025754;28;20022;-55
2024/02/27 13:52:12;;;;;;;36.00;15.15;;;;;;;;;;5025740;28;20094;-52
2024/02/27 13:54:39;;;;;;;31.10;13.68;;;;;;;;;;5025661;28;20306;-55
2024/02/27 13:57:05;;;;;;;27.98;14.70;;;;;;;;;;5025601;28;20269;-57
2024/02/27 13:59:32;;;;;;;43.45;15.25;;;;;;;;;;5025659;28;20017;-56
2024/02/27 14:01:58;;;;;;;36.58;15.90;;;;;;;;;;5025618;28;20037;-58
2024/02/27 14:04:25;;;;;;;32.55;14.93;;;;;;;;;;5025523;28;20093;-52
2024/02/27 14:06:52;;;;;;;31.90;17.65;;;;;;;;;;5025303;28;20065;-56
2024/02/27 14:09:19;;;;;;;33.33;17.05;;;;;;;;;;5025304;28;20014;-51
2024/02/27 14:11:45;;;;;;;34.35;16.13;;;;;;;;;;5025258;28;20293;-56
2024/02/27 14:14:12;;;;;;;32.35;14.95;;;;;;;;;;5025493;28;20032;-50
2024/02/27 14:16:40;;;;;;;30.23;14.60;;;;;;;;;;5025843;28;20021;-45
2024/02/27 14:19:08;;;;;;;30.60;14.60;;;;;;;;;;5025128;28;20089;-43